Time;durP1;ratioP1;P1;durP2;ratioP2;P2;SDS_P1;SDS_P2;PMS_P1;PMS_P2;Temp;Humidity;BMP_temperature;BMP_pressure;BME280_temperature;BME280_humidity;BME280_pressure;Samples;Min_cycle;Max_cycle;Signal;HPM_P1;HPM_P2
2022/08/27 00:00:54;;;;;;;1.10;1.00;;;25.40;55.50;;;;;;4968555;28;86526;-87
2022/08/27 00:03:20;;;;;;;1.48;1.00;;;25.30;55.40;;;;;;4969106;28;85950;-90
2022/08/27 00:05:45;;;;;;;1.65;0.90;;;25.30;55.30;;;;;;4967422;28;85723;-88
2022/08/27 00:08:12;;;;;;;1.10;0.98;;;25.30;55.40;;;;;;4968759;28;87353;-86
2022/08/27 00:10:38;;;;;;;2.35;1.35;;;25.30;55.40;;;;;;4997939;28;90047;-87
2022/08/27 00:13:04;;;;;;;2.13;1.20;;;25.30;55.40;;;;;;4999642;28;85714;-90
2022/08/27 00:15:30;;;;;;;1.10;0.90;;;25.30;55.40;;;;;;4964555;28;86132;-88
2022/08/27 00:17:56;;;;;;;1.23;0.90;;;25.30;55.50;;;;;;4967259;28;86867;-87
2022/08/27 00:20:24;;;;;;;1.88;0.98;;;25.30;55.30;;;;;;4965456;28;87146;-86
2022/08/27 00:22:51;;;;;;;1.15;0.85;;;25.30;55.30;;;;;;4964903;28;86195;-87
2022/08/27 00:25:18;;;;;;;1.23;1.00;;;25.30;55.30;;;;;;4968207;28;85684;-87
2022/08/27 00:27:43;;;;;;;1.50;0.93;;;25.30;55.50;;;;;;4966462;28;86065;-87
2022/08/27 00:30:12;;;;;;;1.50;1.00;;;25.30;55.60;;;;;;4967630;28;87367;-90
2022/08/27 00:32:39;;;;;;;2.55;1.20;;;25.20;55.40;;;;;;4968948;28;86632;-88
2022/08/27 00:35:05;;;;;;;1.80;1.05;;;25.20;55.40;;;;;;4998351;28;86157;-87
2022/08/27 00:37:31;;;;;;;1.60;1.00;;;25.30;55.60;;;;;;4967184;28;88596;-88
2022/08/27 00:39:57;;;;;;;1.20;0.90;;;25.20;55.50;;;;;;4999393;28;88219;-89
2022/08/27 00:42:23;;;;;;;2.55;1.20;;;25.20;55.50;;;;;;4967081;28;86689;-87
2022/08/27 00:44:48;;;;;;;1.52;1.00;;;25.20;55.50;;;;;;4968646;28;86062;-87
2022/08/27 00:47:21;;;;;;;1.30;1.00;;;25.20;55.40;;;;;;4966928;28;85789;-88
2022/08/27 00:49:51;;;;;;;1.55;1.00;;;25.20;55.60;;;;;;4967276;28;87054;-89
2022/08/27 00:52:28;;;;;;;1.58;1.10;;;25.20;55.50;;;;;;4968082;28;86390;-86
2022/08/27 00:55:07;;;;;;;1.67;1.25;;;25.20;55.60;;;;;;4967578;28;85966;-88
2022/08/27 00:57:36;;;;;;;1.00;0.85;;;25.20;55.80;;;;;;4966013;28;87001;-88
2022/08/27 01:00:03;;;;;;;2.15;1.08;;;25.20;55.70;;;;;;4967664;28;86827;-88
2022/08/27 01:02:29;;;;;;;1.70;1.00;;;25.20;55.80;;;;;;4966484;28;89539;-90
2022/08/27 01:05:08;;;;;;;2.00;1.00;;;25.20;55.90;;;;;;4967723;28;85831;-89
2022/08/27 01:07:39;;;;;;;1.77;1.30;;;25.20;55.90;;;;;;4981808;28;89227;-87
2022/08/27 01:10:09;;;;;;;1.83;0.80;;;25.20;55.90;;;;;;4967513;28;86179;-86
2022/08/27 01:12:34;;;;;;;;;;;25.20;55.90;;;;;;4966061;28;85771;-89
2022/08/27 01:15:04;;;;;;;1.10;1.00;;;25.20;55.80;;;;;;4969766;28;85696;-88
2022/08/27 01:17:30;;;;;;;1.10;1.00;;;25.20;55.90;;;;;;4966186;28;91989;-87
2022/08/27 01:20:01;;;;;;;1.20;1.10;;;25.20;55.90;;;;;;4967255;28;86518;-87
2022/08/27 01:22:31;;;;;;;1.70;0.98;;;25.20;55.90;;;;;;4969060;28;85814;-88
2022/08/27 01:25:05;;;;;;;2.08;1.17;;;25.20;56.10;;;;;;4966955;28;86128;-85
2022/08/27 01:27:31;;;;;;;1.35;1.15;;;25.20;56.10;;;;;;4998802;28;89608;-88
2022/08/27 01:29:57;;;;;;;1.67;1.02;;;25.20;56.00;;;;;;4998571;28;88297;-87
2022/08/27 01:32:27;;;;;;;1.70;1.25;;;25.20;55.90;;;;;;4966117;28;86216;-89
2022/08/27 01:34:53;;;;;;;1.17;0.80;;;25.20;56.00;;;;;;4966979;28;85686;-87
2022/08/27 01:37:20;;;;;;;1.00;0.85;;;25.20;56.00;;;;;;4966838;28;88002;-89
2022/08/27 01:39:46;;;;;;;1.30;1.00;;;25.10;56.00;;;;;;4965894;28;85827;-88
2022/08/27 01:42:17;;;;;;;1.45;0.93;;;25.10;56.10;;;;;;4966377;28;85741;-87
2022/08/27 01:44:55;;;;;;;1.10;0.80;;;25.10;56.20;;;;;;4968639;28;86741;-88
2022/08/27 01:47:23;;;;;;;2.15;1.20;;;25.10;56.10;;;;;;4967931;28;86127;-88
2022/08/27 01:49:49;;;;;;;1.10;1.00;;;25.10;56.00;;;;;;4969291;28;86524;-88
2022/08/27 01:52:17;;;;;;;1.77;0.93;;;25.10;56.20;;;;;;4968420;28;86044;-86
2022/08/27 01:54:43;;;;;;;1.15;0.95;;;25.10;56.10;;;;;;4970397;28;85923;-90
2022/08/27 01:57:09;;;;;;;1.75;1.17;;;25.10;56.20;;;;;;4970654;28;87056;-88
2022/08/27 01:59:35;;;;;;;1.10;0.90;;;25.10;56.20;;;;;;5000740;28;88861;-89
2022/08/27 02:02:01;;;;;;;1.05;0.90;;;25.10;56.30;;;;;;4969503;28;86431;-88
2022/08/27 02:04:28;;;;;;;0.95;0.88;;;25.10;56.20;;;;;;4968950;28;86364;-88
2022/08/27 02:06:54;;;;;;;1.38;1.00;;;25.10;56.20;;;;;;4972141;28;86351;-88
2022/08/27 02:09:20;;;;;;;1.27;1.00;;;25.10;56.30;;;;;;4969329;28;86737;-88
2022/08/27 02:11:46;;;;;;;1.58;1.10;;;25.10;56.20;;;;;;4972313;28;86313;-89
2022/08/27 02:14:12;;;;;;;1.58;1.00;;;25.10;56.30;;;;;;4971482;28;85773;-86
2022/08/27 02:16:38;;;;;;;1.05;0.90;;;25.10;56.20;;;;;;4971319;28;89507;-89
2022/08/27 02:19:04;;;;;;;0.80;0.73;;;25.10;56.20;;;;;;4969395;28;86841;-87
2022/08/27 02:21:29;;;;;;;1.25;1.00;;;25.10;56.30;;;;;;5002206;28;86587;-85
2022/08/27 02:23:55;;;;;;;1.77;1.00;;;25.10;56.30;;;;;;4970885;28;86358;-84
2022/08/27 02:26:21;;;;;;;1.00;0.90;;;25.10;56.30;;;;;;4968874;28;87404;-84
2022/08/27 02:28:47;;;;;;;1.30;0.98;;;25.10;56.30;;;;;;4969820;28;88320;-84
2022/08/27 02:31:13;;;;;;;0.93;0.88;;;25.10;56.30;;;;;;4968908;28;86476;-87
2022/08/27 02:33:39;;;;;;;0.77;0.77;;;25.10;56.50;;;;;;5000477;28;86030;-87
2022/08/27 02:36:05;;;;;;;1.70;1.10;;;25.10;56.30;;;;;;4968162;28;86437;-86
2022/08/27 02:38:30;;;;;;;1.85;1.02;;;25.00;56.50;;;;;;4969323;28;85681;-85
2022/08/27 02:40:56;;;;;;;0.80;0.80;;;25.10;56.40;;;;;;4971533;28;87116;-85
2022/08/27 02:43:22;;;;;;;1.08;0.90;;;25.00;56.40;;;;;;4999269;28;85857;-86
2022/08/27 02:45:48;;;;;;;1.77;1.30;;;25.10;56.40;;;;;;4968516;28;89425;-85
2022/08/27 02:48:14;;;;;;;1.30;1.00;;;25.10;56.50;;;;;;4967777;28;88570;-87
2022/08/27 02:50:40;;;;;;;1.55;0.98;;;25.10;56.60;;;;;;4970884;28;86296;-84
2022/08/27 02:53:06;;;;;;;1.38;1.02;;;25.00;56.30;;;;;;5001804;28;85783;-86
2022/08/27 02:55:32;;;;;;;1.83;1.00;;;25.00;56.30;;;;;;4968434;28;90861;-87
2022/08/27 02:57:58;;;;;;;1.35;0.88;;;25.00;56.40;;;;;;5002425;28;87501;-86
2022/08/27 03:00:24;;;;;;;1.38;1.17;;;25.00;56.50;;;;;;4970042;28;85810;-87
2022/08/27 03:02:50;;;;;;;1.13;0.80;;;25.00;56.60;;;;;;4969043;28;86046;-85
2022/08/27 03:05:17;;;;;;;1.15;1.05;;;25.00;56.50;;;;;;4970646;28;86915;-86
2022/08/27 03:07:43;;;;;;;0.98;0.82;;;25.00;56.50;;;;;;4970416;28;86383;-85
2022/08/27 03:10:12;;;;;;;1.08;0.95;;;25.00;56.60;;;;;;4994483;28;86244;-84
2022/08/27 03:12:38;;;;;;;0.77;0.77;;;25.00;56.60;;;;;;4968795;28;85658;-89
2022/08/27 03:15:05;;;;;;;1.35;1.10;;;25.00;56.60;;;;;;4969666;28;87089;-86
2022/08/27 03:20:32;;;;;;;1.85;1.10;;;25.00;56.60;;;;;;4987192;28;86173;-88
2022/08/27 03:22:59;;;;;;;1.40;1.17;;;25.00;56.70;;;;;;4989135;28;85761;-85
2022/08/27 03:25:25;;;;;;;1.08;0.93;;;25.00;56.70;;;;;;4986018;28;86340;-87
2022/08/27 03:27:50;;;;;;;1.45;1.10;;;25.00;56.60;;;;;;4983411;28;86378;-85
2022/08/27 03:30:20;;;;;;;1.13;0.93;;;25.00;56.70;;;;;;4984669;28;86291;-84
2022/08/27 03:32:46;;;;;;;1.08;1.00;;;25.00;56.60;;;;;;4985835;28;86135;-83
2022/08/27 03:35:12;;;;;;;0.80;0.80;;;25.00;56.50;;;;;;4968700;28;89483;-86
2022/08/27 03:37:39;;;;;;;1.00;0.70;;;25.00;56.50;;;;;;4987003;28;85735;-84
2022/08/27 03:40:06;;;;;;;1.05;0.95;;;25.00;56.40;;;;;;4987309;28;85773;-85
2022/08/27 03:42:33;;;;;;;0.90;0.90;;;25.00;56.50;;;;;;4985489;28;86202;-84
2022/08/27 03:44:59;;;;;;;1.10;0.82;;;25.00;56.50;;;;;;4985551;28;87551;-87
2022/08/27 03:47:24;;;;;;;1.38;0.90;;;24.90;56.40;;;;;;4984550;28;85945;-83
2022/08/27 03:49:50;;;;;;;0.80;0.80;;;25.00;56.50;;;;;;4987911;28;86466;-84
2022/08/27 03:52:16;;;;;;;2.10;1.00;;;24.90;56.60;;;;;;4984033;28;86550;-89
2022/08/27 03:54:42;;;;;;;0.98;0.90;;;25.00;56.80;;;;;;4976579;28;86891;-85
2022/08/27 03:57:08;;;;;;;0.90;0.80;;;24.90;56.60;;;;;;4998351;28;91167;-86
2022/08/27 03:59:34;;;;;;;1.10;1.00;;;25.00;56.70;;;;;;4970791;28;85994;-87
2022/08/27 04:02:01;;;;;;;0.77;0.77;;;24.90;56.50;;;;;;4996892;28;86283;-87
2022/08/27 04:04:27;;;;;;;1.15;0.95;;;24.90;56.50;;;;;;4967991;28;90511;-88
2022/08/27 04:06:53;;;;;;;1.17;0.93;;;25.00;56.50;;;;;;4968096;28;86974;-87
2022/08/27 04:09:18;;;;;;;0.80;0.80;;;25.00;56.70;;;;;;4967961;28;85851;-87
2022/08/27 04:11:44;;;;;;;1.00;0.73;;;24.90;56.60;;;;;;4966732;28;86002;-87
2022/08/27 04:14:09;;;;;;;0.90;0.90;;;24.90;56.90;;;;;;4967289;28;87443;-86
2022/08/27 04:16:35;;;;;;;1.35;0.90;;;24.90;56.70;;;;;;4969128;28;87298;-87
2022/08/27 04:19:02;;;;;;;1.20;1.00;;;24.90;56.80;;;;;;4967854;28;85917;-85
2022/08/27 04:21:28;;;;;;;0.77;0.77;;;24.90;57.30;;;;;;4965936;28;86290;-88
2022/08/27 04:23:55;;;;;;;1.17;0.80;;;24.90;56.60;;;;;;4999443;28;89579;-87
2022/08/27 04:26:22;;;;;;;1.08;0.90;;;24.90;56.60;;;;;;4966904;28;85799;-86
2022/08/27 04:28:48;;;;;;;0.90;0.80;;;24.90;56.60;;;;;;4968615;28;86174;-88
2022/08/27 04:31:13;;;;;;;1.77;1.10;;;24.90;56.70;;;;;;4966601;28;85766;-87
2022/08/27 04:33:40;;;;;;;0.98;0.80;;;24.90;56.60;;;;;;4997308;28;88708;-87
2022/08/27 04:36:09;;;;;;;0.90;0.80;;;24.90;56.60;;;;;;4982249;28;87612;-88
2022/08/27 04:38:35;;;;;;;1.77;1.02;;;24.90;56.60;;;;;;4998884;28;85724;-86
2022/08/27 04:41:18;;;;;;;1.33;1.10;;;24.90;56.70;;;;;;4998868;28;86354;-88
2022/08/27 04:43:52;;;;;;;0.70;0.70;;;24.90;56.60;;;;;;4946074;28;88446;-88
2022/08/27 04:46:22;;;;;;;1.17;0.90;;;24.90;56.70;;;;;;4945693;28;87764;-87
2022/08/27 04:48:48;;;;;;;1.42;1.08;;;24.90;56.70;;;;;;4946006;28;85781;-88
2022/08/27 04:51:13;;;;;;;1.38;1.10;;;24.90;56.80;;;;;;4946862;28;85861;-86
2022/08/27 04:53:39;;;;;;;1.10;1.00;;;24.90;56.80;;;;;;4930270;28;91199;-85
2022/08/27 04:56:05;;;;;;;0.82;0.80;;;24.90;56.80;;;;;;4945365;28;86405;-87
2022/08/27 04:58:30;;;;;;;1.13;0.90;;;24.90;56.80;;;;;;4960598;28;86451;-85
2022/08/27 05:01:00;;;;;;;1.00;0.90;;;24.90;56.80;;;;;;4944745;28;86960;-87
2022/08/27 05:03:27;;;;;;;1.20;0.88;;;24.90;56.60;;;;;;4945652;28;86216;-87
2022/08/27 05:06:01;;;;;;;0.88;0.88;;;24.90;56.50;;;;;;4948064;28;87186;-86
2022/08/27 05:08:28;;;;;;;1.30;1.00;;;24.90;56.40;;;;;;4944036;28;86437;-86
2022/08/27 05:10:53;;;;;;;1.15;0.93;;;24.90;56.40;;;;;;4944748;28;85800;-88
2022/08/27 05:13:21;;;;;;;1.08;0.95;;;24.90;56.30;;;;;;4945112;28;86181;-88
2022/08/27 05:15:47;;;;;;;1.17;1.03;;;24.90;56.50;;;;;;4964712;28;85913;-86
2022/08/27 05:18:13;;;;;;;0.90;0.90;;;24.90;56.60;;;;;;4999746;28;85892;-87
2022/08/27 05:20:47;;;;;;;1.13;1.02;;;24.90;56.60;;;;;;4966920;28;85829;-88
2022/08/27 05:23:14;;;;;;;1.00;0.80;;;24.90;56.60;;;;;;4968599;28;86580;-88
2022/08/27 05:25:43;;;;;;;1.15;0.90;;;24.80;56.60;;;;;;4967876;28;86578;-87
2022/08/27 05:28:11;;;;;;;1.23;1.00;;;24.80;56.60;;;;;;4998977;28;85695;-85
2022/08/27 05:30:42;;;;;;;1.30;1.15;;;24.80;56.50;;;;;;4998294;28;85941;-87
2022/08/27 05:33:08;;;;;;;1.23;1.13;;;24.80;56.60;;;;;;4964124;28;89228;-87
2022/08/27 05:35:55;;;;;;;1.35;1.00;;;24.90;56.70;;;;;;4999762;28;88677;-86
2022/08/27 05:38:23;;;;;;;1.10;1.00;;;24.90;56.60;;;;;;4966285;28;87364;-87
2022/08/27 05:40:49;;;;;;;1.05;0.80;;;24.90;56.60;;;;;;4968044;28;86335;-85
2022/08/27 05:43:17;;;;;;;1.80;1.02;;;24.90;56.60;;;;;;4967214;28;87330;-85
2022/08/27 05:45:45;;;;;;;0.93;0.93;;;24.90;56.50;;;;;;4967503;28;86593;-89
2022/08/27 05:48:12;;;;;;;1.42;1.00;;;24.90;56.60;;;;;;4997952;28;86507;-85
2022/08/27 05:50:42;;;;;;;1.08;0.98;;;24.80;56.60;;;;;;4966235;28;85800;-88
2022/08/27 05:53:09;;;;;;;0.98;0.88;;;24.90;56.50;;;;;;4998182;28;88822;-87
2022/08/27 05:55:37;;;;;;;1.05;1.00;;;24.80;56.60;;;;;;4997144;28;87627;-85
2022/08/27 05:58:04;;;;;;;2.05;0.90;;;24.80;56.50;;;;;;4967030;28;85818;-86
2022/08/27 06:03:13;;;;;;;0.75;0.75;;;24.90;56.50;;;;;;4967180;28;86147;-87
2022/08/27 06:05:39;;;;;;;1.13;0.80;;;24.90;56.70;;;;;;4999633;28;90054;-85
2022/08/27 06:08:05;;;;;;;1.15;1.05;;;24.90;56.60;;;;;;4967279;28;86180;-87
2022/08/27 06:10:31;;;;;;;0.93;0.93;;;24.90;56.60;;;;;;4999604;28;86455;-87
2022/08/27 06:12:56;;;;;;;1.17;0.88;;;24.90;56.50;;;;;;4963282;28;87169;-85
2022/08/27 06:15:22;;;;;;;1.75;1.10;;;24.90;56.50;;;;;;4965852;28;90072;-88
2022/08/27 06:17:48;;;;;;;0.90;0.80;;;24.90;56.50;;;;;;4968411;28;85737;-87
2022/08/27 06:20:14;;;;;;;1.50;1.00;;;24.90;56.50;;;;;;4968167;28;86195;-89
2022/08/27 06:22:39;;;;;;;1.90;1.02;;;24.90;56.50;;;;;;4963774;28;89393;-88
2022/08/27 06:25:06;;;;;;;3.35;1.75;;;24.90;56.30;;;;;;4963112;28;86876;-85
2022/08/27 06:27:31;;;;;;;14.65;2.35;;;24.90;55.80;;;;;;4963360;28;85762;-85
2022/08/27 06:29:57;;;;;;;11.35;1.90;;;24.90;55.10;;;;;;4997761;28;85826;-85
2022/08/27 06:32:23;;;;;;;13.05;1.63;;;24.90;54.70;;;;;;4963515;28;87625;-86
2022/08/27 06:34:49;;;;;;;9.73;1.77;;;24.90;55.20;;;;;;4965261;28;88477;-85
2022/08/27 06:37:14;;;;;;;8.50;2.45;;;24.90;55.30;;;;;;4968046;28;86343;-84
2022/08/27 06:39:40;;;;;;;5.57;1.85;;;24.90;55.00;;;;;;4967079;28;86518;-85
2022/08/27 06:42:10;;;;;;;4.07;2.33;;;24.90;54.80;;;;;;4970078;28;87153;-86
2022/08/27 06:44:35;;;;;;;4.80;2.08;;;24.90;54.20;;;;;;4967963;28;86340;-83
2022/08/27 06:47:02;;;;;;;7.03;3.33;;;24.90;53.80;;;;;;4968467;28;86494;-86
2022/08/27 06:49:28;;;;;;;10.98;2.95;;;24.80;52.80;;;;;;4967834;28;85752;-85
2022/08/27 06:51:54;;;;;;;6.10;2.65;;;24.70;52.30;;;;;;4965378;28;85791;-84
2022/08/27 06:54:20;;;;;;;7.05;2.67;;;24.70;52.00;;;;;;4967567;28;87077;-84
2022/08/27 06:56:46;;;;;;;5.55;2.22;;;24.60;51.90;;;;;;4967346;28;85819;-85
2022/08/27 06:59:14;;;;;;;6.95;2.85;;;24.50;51.80;;;;;;4967392;28;86108;-84
2022/08/27 07:01:42;;;;;;;7.30;2.80;;;24.60;52.20;;;;;;4966919;28;86683;-85
2022/08/27 07:04:11;;;;;;;6.43;2.53;;;24.50;52.10;;;;;;4968423;28;86378;-82
2022/08/27 07:06:38;;;;;;;5.78;2.67;;;24.40;52.00;;;;;;4968604;28;86213;-84
2022/08/27 07:09:04;;;;;;;6.28;2.63;;;24.40;52.00;;;;;;4967335;28;86360;-84
2022/08/27 07:11:32;;;;;;;5.38;2.47;;;24.30;52.30;;;;;;4965495;28;87424;-85
2022/08/27 07:13:59;;;;;;;5.25;2.55;;;24.40;52.10;;;;;;4966115;28;85948;-83
2022/08/27 07:16:26;;;;;;;6.53;2.60;;;24.40;52.00;;;;;;4967666;28;86528;-84
2022/08/27 07:18:55;;;;;;;9.05;3.10;;;24.40;52.00;;;;;;4966266;28;85892;-83
2022/08/27 07:21:22;;;;;;;6.13;2.97;;;24.40;51.90;;;;;;4964959;28;86897;-85
2022/08/27 07:23:50;;;;;;;47.97;10.55;;;24.40;52.00;;;;;;4966510;28;86421;-87
2022/08/27 07:26:18;;;;;;;51.63;11.17;;;24.40;51.90;;;;;;4965308;28;86689;-86
2022/08/27 07:28:45;;;;;;;59.60;9.52;;;24.40;51.80;;;;;;4967151;28;86339;-85
2022/08/27 07:31:15;;;;;;;32.88;6.55;;;24.40;51.80;;;;;;4966787;28;86507;-86
2022/08/27 07:33:41;;;;;;;20.10;6.53;;;24.40;51.60;;;;;;4966426;28;86643;-83
2022/08/27 07:36:07;;;;;;;16.85;4.65;;;24.30;51.60;;;;;;5002857;28;86662;-84
2022/08/27 07:38:35;;;;;;;12.90;4.20;;;24.40;51.80;;;;;;5006474;28;86228;-86
2022/08/27 07:41:09;;;;;;;9.02;3.30;;;24.30;51.90;;;;;;4987201;28;88496;-84
2022/08/27 07:46:20;;;;;;;18.00;3.83;;;24.30;52.30;;;;;;5002293;28;86311;-82
2022/08/27 07:48:46;;;;;;;14.88;3.63;;;24.30;52.30;;;;;;5000439;28;87146;-83
2022/08/27 07:51:14;;;;;;;14.00;3.35;;;24.40;52.60;;;;;;4998905;28;87018;-85
2022/08/27 07:53:39;;;;;;;18.45;3.67;;;24.40;52.50;;;;;;4984937;28;87534;-83
2022/08/27 07:56:06;;;;;;;17.65;3.65;;;24.50;52.30;;;;;;5001048;28;86071;-83
2022/08/27 07:58:33;;;;;;;12.07;3.25;;;24.50;52.10;;;;;;4985116;28;85925;-84
2022/08/27 08:00:58;;;;;;;11.55;2.88;;;24.40;51.80;;;;;;5001754;28;86403;-83
2022/08/27 08:03:24;;;;;;;8.75;2.90;;;24.50;51.80;;;;;;5000697;28;86342;-84
2022/08/27 08:05:52;;;;;;;9.63;3.00;;;24.40;51.70;;;;;;4993435;28;86124;-85
2022/08/27 08:08:18;;;;;;;8.63;2.45;;;24.40;51.60;;;;;;4966662;28;87418;-83
2022/08/27 08:10:44;;;;;;;7.50;2.53;;;24.40;51.60;;;;;;4966396;28;87723;-83
2022/08/27 08:13:11;;;;;;;5.40;2.58;;;24.40;51.80;;;;;;4924387;28;87432;-83
2022/08/27 08:15:37;;;;;;;8.27;2.40;;;24.40;51.70;;;;;;4967182;28;86134;-82
2022/08/27 08:18:03;;;;;;;4.53;2.10;;;24.40;51.50;;;;;;4963810;28;86379;-82
2022/08/27 08:20:30;;;;;;;9.13;2.10;;;24.40;51.50;;;;;;4966766;28;86247;-84
2022/08/27 08:22:55;;;;;;;6.13;2.00;;;24.40;51.40;;;;;;4966095;28;86417;-82
2022/08/27 08:25:21;;;;;;;8.02;2.38;;;24.40;51.50;;;;;;4964443;28;85920;-83
2022/08/27 08:27:47;;;;;;;7.88;2.35;;;24.40;51.50;;;;;;4966650;28;86501;-84
2022/08/27 08:30:13;;;;;;;11.57;2.30;;;24.50;51.70;;;;;;4964067;28;86972;-84
2022/08/27 08:32:39;;;;;;;9.20;2.53;;;24.40;51.70;;;;;;4967626;28;86865;-85
2022/08/27 08:35:06;;;;;;;6.68;2.30;;;24.50;51.80;;;;;;4996963;28;85959;-85
2022/08/27 08:37:32;;;;;;;8.23;2.25;;;24.60;51.30;;;;;;4967751;28;86383;-85
2022/08/27 08:39:58;;;;;;;7.20;2.40;;;24.60;51.30;;;;;;4967912;28;86177;-84
2022/08/27 08:42:37;;;;;;;12.27;2.78;;;24.70;51.80;;;;;;4967199;28;86964;-86
2022/08/27 08:45:05;;;;;;;7.15;2.40;;;24.60;56.70;;;;;;4965427;28;85819;-83
2022/08/27 08:47:46;;;;;;;8.60;2.60;;;24.60;54.60;;;;;;4967858;28;85649;-84
2022/08/27 08:50:30;;;;;;;7.93;2.17;;;24.60;52.20;;;;;;4965292;28;87490;-83
2022/08/27 08:53:41;;;;;;;10.32;2.38;;;24.50;51.60;;;;;;4964566;28;86922;-83
2022/08/27 08:56:32;;;;;;;8.05;2.45;;;24.50;51.70;;;;;;4996359;28;87359;-83
2022/08/27 08:59:22;;;;;;;5.13;2.17;;;24.40;51.50;;;;;;4967934;28;86490;-82
2022/08/27 09:01:48;;;;;;;6.05;2.30;;;24.40;51.40;;;;;;4965435;28;88578;-83
2022/08/27 09:04:14;;;;;;;3.63;1.65;;;24.50;51.20;;;;;;4967169;28;85910;-84
2022/08/27 09:06:54;;;;;;;12.70;3.42;;;24.40;51.30;;;;;;4967009;28;86229;-83
2022/08/27 09:09:41;;;;;;;36.85;8.27;;;24.40;51.20;;;;;;4967435;28;85583;-83
2022/08/27 09:12:18;;;;;;;45.90;9.48;;;24.40;51.20;;;;;;4967120;28;86499;-85
2022/08/27 09:14:52;;;;;;;55.33;12.68;;;24.40;51.60;;;;;;4966694;28;86150;-85
2022/08/27 09:17:18;;;;;;;49.67;10.75;;;24.40;52.00;;;;;;4965202;28;86518;-85
2022/08/27 09:19:44;;;;;;;38.88;10.02;;;24.40;52.10;;;;;;4964660;28;86477;-85
2022/08/27 09:22:30;;;;;;;36.53;8.88;;;24.30;52.10;;;;;;4965333;28;86448;-86
2022/08/27 09:25:20;;;;;;;30.23;6.53;;;24.40;52.30;;;;;;4967831;28;86594;-85
2022/08/27 09:27:47;;;;;;;19.63;4.60;;;24.40;52.00;;;;;;4998698;28;86435;-85
2022/08/27 09:30:22;;;;;;;19.63;5.28;;;24.40;51.90;;;;;;4997730;28;86463;-85
2022/08/27 09:32:59;;;;;;;13.85;4.07;;;24.40;52.00;;;;;;4967257;28;86950;-85
2022/08/27 09:35:33;;;;;;;19.90;3.80;;;24.50;53.00;;;;;;4967050;28;86090;-84
2022/08/27 09:38:01;;;;;;;8.00;3.10;;;24.60;53.00;;;;;;4967425;28;85769;-84
2022/08/27 09:40:37;;;;;;;11.32;3.40;;;24.50;52.30;;;;;;4965728;28;86199;-85
2022/08/27 09:43:14;;;;;;;13.38;3.08;;;24.50;51.90;;;;;;4967424;28;86802;-83
2022/08/27 09:45:51;;;;;;;11.02;3.75;;;24.50;51.50;;;;;;4964508;28;86195;-84
2022/08/27 09:48:24;;;;;;;13.10;3.25;;;24.50;51.30;;;;;;4967508;28;86193;-84
2022/08/27 09:50:53;;;;;;;5.90;2.63;;;24.50;51.00;;;;;;4964266;28;86008;-83
2022/08/27 09:53:34;;;;;;;7.32;2.70;;;24.50;50.80;;;;;;4965596;28;86333;-86
2022/08/27 09:56:03;;;;;;;11.35;2.85;;;24.50;50.80;;;;;;4967814;28;86844;-85
2022/08/27 09:58:40;;;;;;;13.18;3.30;;;24.60;51.20;;;;;;4964268;28;86411;-82
2022/08/27 10:01:18;;;;;;;12.27;2.97;;;24.60;51.40;;;;;;4996654;28;85955;-82
2022/08/27 10:03:44;;;;;;;8.68;2.95;;;24.60;50.70;;;;;;4964817;28;86727;-83
2022/08/27 10:06:10;;;;;;;8.40;2.58;;;24.60;50.90;;;;;;4964832;28;86289;-85
2022/08/27 10:08:47;;;;;;;10.00;2.45;;;24.70;50.60;;;;;;4964360;28;85791;-83
2022/08/27 10:11:21;;;;;;;13.40;2.65;;;24.60;50.20;;;;;;4967202;28;86368;-82
2022/08/27 10:14:01;;;;;;;15.98;3.72;;;24.60;50.90;;;;;;4965530;28;87699;-85
2022/08/27 10:16:51;;;;;;;8.68;3.22;;;24.70;51.30;;;;;;4964369;28;86410;-84
2022/08/27 10:19:22;;;;;;;14.13;3.00;;;24.70;50.20;;;;;;4965478;28;86064;-86
2022/08/27 10:22:02;;;;;;;9.20;2.72;;;24.80;50.90;;;;;;4969781;28;86151;-89
2022/08/27 10:25:01;;;;;;;13.57;3.63;;;24.80;50.90;;;;;;4966346;28;87039;-86
2022/08/27 10:27:43;;;;;;;11.57;2.95;;;24.80;51.00;;;;;;4928325;28;88134;-86
2022/08/27 10:30:15;;;;;;;12.10;3.55;;;24.80;50.60;;;;;;4924897;28;86220;-84
2022/08/27 10:32:59;;;;;;;9.98;3.28;;;24.90;50.70;;;;;;4927215;28;86841;-85
2022/08/27 10:35:40;;;;;;;7.03;2.70;;;24.90;50.60;;;;;;4922057;28;87461;-82
2022/08/27 10:38:30;;;;;;;9.88;2.50;;;24.90;49.60;;;;;;4925356;28;89308;-84
2022/08/27 10:41:10;;;;;;;8.23;3.10;;;24.90;49.20;;;;;;4939750;28;86344;-83
2022/08/27 10:44:03;;;;;;;5.35;2.47;;;24.80;49.80;;;;;;4940101;28;86379;-82
2022/08/27 10:46:46;;;;;;;8.07;3.08;;;24.80;49.20;;;;;;4943683;28;86332;-85
2022/08/27 10:49:32;;;;;;;6.68;2.58;;;24.80;48.20;;;;;;4943282;28;86037;-84
2022/08/27 10:52:28;;;;;;;4.93;2.25;;;24.70;47.80;;;;;;4960220;28;93634;-85
2022/08/27 10:55:30;;;;;;;5.95;2.30;;;24.70;47.80;;;;;;4946343;28;87851;-84
2022/08/27 10:58:07;;;;;;;7.38;2.30;;;24.70;47.60;;;;;;4906123;28;87633;-87
2022/08/27 11:00:57;;;;;;;6.63;2.40;;;24.70;48.00;;;;;;4904425;28;86357;-82
2022/08/27 11:03:34;;;;;;;9.40;2.22;;;24.70;47.90;;;;;;4904588;28;87646;-86
2022/08/27 11:06:09;;;;;;;7.80;2.58;;;24.70;47.70;;;;;;4943612;28;85938;-83
2022/08/27 11:08:49;;;;;;;10.38;2.75;;;24.70;47.50;;;;;;4946967;28;89659;-84
2022/08/27 11:11:37;;;;;;;7.75;2.42;;;24.70;47.40;;;;;;4941335;28;86076;-87
2022/08/27 11:14:08;;;;;;;6.57;2.35;;;24.70;47.60;;;;;;4943632;28;86254;-85
2022/08/27 11:16:42;;;;;;;6.10;2.35;;;24.70;48.60;;;;;;4945236;28;86160;-85
2022/08/27 11:19:31;;;;;;;5.97;2.60;;;24.70;48.60;;;;;;4929847;28;89727;-84
2022/08/27 11:22:12;;;;;;;5.47;2.15;;;24.70;48.10;;;;;;4944530;28;86859;-87
2022/08/27 11:24:44;;;;;;;7.40;2.13;;;24.70;47.60;;;;;;4943628;28;86384;-84
2022/08/27 11:27:19;;;;;;;5.68;2.75;;;24.70;47.90;;;;;;4949433;28;86322;-92
2022/08/27 11:29:48;;;;;;;9.25;2.40;;;24.70;48.30;;;;;;4946907;28;87557;-83
2022/08/27 11:32:39;;;;;;;7.28;2.60;;;24.80;47.90;;;;;;4933106;28;85794;-85
2022/08/27 11:35:15;;;;;;;7.63;3.10;;;24.80;47.40;;;;;;4962972;28;85661;-85
2022/08/27 11:38:12;;;;;;;7.43;2.90;;;24.70;47.20;;;;;;4998520;28;86274;-86
2022/08/27 11:40:58;;;;;;;7.45;2.10;;;24.80;47.20;;;;;;4953572;28;87757;-84
2022/08/27 11:43:27;;;;;;;7.85;2.38;;;24.70;47.20;;;;;;4953921;28;87089;-87
2022/08/27 11:45:55;;;;;;;5.65;2.40;;;24.70;47.20;;;;;;4953333;28;85848;-87
2022/08/27 11:48:26;;;;;;;4.30;2.10;;;24.70;47.50;;;;;;4953940;28;86378;-85
2022/08/27 11:50:53;;;;;;;4.80;2.20;;;24.80;47.50;;;;;;4955025;28;86627;-87
2022/08/27 11:53:38;;;;;;;11.27;2.33;;;24.90;47.50;;;;;;4971561;28;87979;-91
2022/08/27 11:56:19;;;;;;;13.05;2.60;;;24.90;47.80;;;;;;4958247;28;86297;-87
2022/08/27 11:58:45;;;;;;;14.52;3.33;;;24.90;48.00;;;;;;4957756;28;86098;-88
2022/08/27 12:01:25;;;;;;;5.97;2.20;;;24.90;48.10;;;;;;4959320;28;86478;-87
2022/08/27 12:04:02;;;;;;;7.45;2.40;;;24.80;48.10;;;;;;4957715;28;86029;-89
2022/08/27 12:06:38;;;;;;;7.00;2.35;;;24.80;48.10;;;;;;4965523;28;86171;-88
2022/08/27 12:09:14;;;;;;;5.00;2.30;;;24.80;48.20;;;;;;4958995;28;86251;-87
2022/08/27 12:11:54;;;;;;;6.68;2.63;;;24.80;48.40;;;;;;4960525;28;86033;-87
2022/08/27 12:14:38;;;;;;;7.93;2.33;;;24.80;48.80;;;;;;4958238;28;85852;-89
2022/08/27 12:17:29;;;;;;;6.15;2.53;;;24.70;48.70;;;;;;4962172;28;86170;-86
2022/08/27 12:20:11;;;;;;;6.97;2.40;;;24.70;49.10;;;;;;4969229;28;85867;-89
2022/08/27 12:25:29;;;;;;;5.43;2.50;;;24.70;49.30;;;;;;4967987;28;86134;-87
2022/08/27 12:28:02;;;;;;;9.15;2.65;;;24.70;49.70;;;;;;4966471;28;87707;-86
2022/08/27 12:30:34;;;;;;;6.28;2.22;;;24.80;50.20;;;;;;4968974;28;86439;-87
2022/08/27 12:33:25;;;;;;;9.55;2.88;;;24.80;50.30;;;;;;4964533;28;88215;-90
2022/08/27 12:35:55;;;;;;;6.60;2.35;;;24.80;50.60;;;;;;4963508;28;91053;-87
2022/08/27 12:38:33;;;;;;;6.63;2.78;;;24.80;50.50;;;;;;4967251;28;85933;-88
2022/08/27 12:41:04;;;;;;;5.10;2.50;;;24.80;50.60;;;;;;4965259;28;86189;-88
2022/08/27 12:43:34;;;;;;;9.88;2.50;;;24.80;50.30;;;;;;4967135;28;86911;-86
2022/08/27 12:46:02;;;;;;;9.13;2.80;;;24.70;50.30;;;;;;4965454;28;86047;-89
2022/08/27 12:48:38;;;;;;;9.75;2.47;;;24.80;50.50;;;;;;4964899;28;85807;-90
2022/08/27 12:51:11;;;;;;;12.23;2.80;;;24.80;51.10;;;;;;4963063;28;85868;-86
2022/08/27 12:53:43;;;;;;;8.73;2.50;;;24.90;51.30;;;;;;4966077;28;87558;-89
2022/08/27 12:56:21;;;;;;;11.43;2.78;;;24.90;51.30;;;;;;4966545;28;85934;-87
2022/08/27 12:58:59;;;;;;;11.52;3.13;;;24.80;51.30;;;;;;4966290;28;85823;-88
2022/08/27 13:01:27;;;;;;;10.98;2.67;;;24.80;50.90;;;;;;4949475;28;86177;-88
2022/08/27 13:03:54;;;;;;;10.83;2.53;;;24.80;51.40;;;;;;4963306;28;86495;-86
2022/08/27 13:06:33;;;;;;;7.28;2.72;;;24.90;51.20;;;;;;4965521;28;86918;-85
2022/08/27 13:09:04;;;;;;;10.88;2.95;;;25.00;50.80;;;;;;4964649;28;85805;-85
2022/08/27 13:11:46;;;;;;;11.82;2.60;;;24.90;51.00;;;;;;4961401;28;87317;-87
2022/08/27 13:14:16;;;;;;;11.20;2.70;;;24.90;51.10;;;;;;4965170;28;86470;-86